Terminal Aerodrome Forecast
Issued by NWS

Home | Current Version | Previous Version | Text Only | Print | Product List | Glossary On
Versions: 1 2 3 4 5 6 7 8 9 10 11 12 13 14 15
000
FTUS45 KRIW 272300
TAFRKS
TAF
KRKS 272329Z 2800/2824 20005KT P6SM BKN070
     FM281200 07011G17KT P6SM SCT025 BKN045
     FM282200 07013G25KT P6SM -SN SCT020 BKN035=

USA.gov is the U.S. government's official web portal to all federal, state and local government web resources and services.